Time;durP1;ratioP1;P1;durP2;ratioP2;P2;SDS_P1;SDS_P2;PMS_P1;PMS_P2;Temp;Humidity;BMP_temperature;BMP_pressure;BME280_temperature;BME280_humidity;BME280_pressure;Samples;Min_cycle;Max_cycle;Signal;HPM_P1;HPM_P2
2022/01/11 00:01:14;;;;;;;977.90;145.87;;;1.90;99.90;;;;;;4805051;29;20055;-84
2022/01/11 00:03:41;;;;;;;1256.83;177.93;;;1.70;99.90;;;;;;4791265;29;20516;-84
2022/01/11 00:06:51;;;;;;;1287.07;190.33;;;2.10;99.90;;;;;;4800365;29;20067;-85
2022/01/11 00:09:01;;;;;;;1629.28;202.55;;;;;;;;;;4796476;29;20059;-84
2022/01/11 00:11:28;;;;;;;903.00;145.30;;;2.30;99.90;;;;;;4802151;29;20558;-85
2022/01/11 00:13:54;;;;;;;1271.87;185.87;;;;;;;;;;4790274;29;20069;-84
2022/01/11 00:16:20;;;;;;;1316.50;201.47;;;1.50;99.90;;;;;;4772535;29;20567;-86
2022/01/11 00:18:46;;;;;;;876.63;160.17;;;;;;;;;;4801686;29;20087;-85
2022/01/11 00:21:12;;;;;;;1999.90;345.13;;;2.50;99.90;;;;;;4800977;29;20130;-83
2022/01/11 00:26:04;;;;;;;665.60;117.43;;;;;;;;;;4803460;29;20054;-86
2022/01/11 00:28:30;;;;;;;520.20;98.30;;;3.50;99.90;;;;;;4785570;29;20062;-85
2022/01/11 00:30:56;;;;;;;699.47;110.57;;;;;;;;;;4801843;29;20050;-84
2022/01/11 00:33:32;;;;;;;277.60;76.43;;;2.00;99.90;;;;;;4802585;29;20054;-83
2022/01/11 00:35:59;;;;;;;560.70;103.67;;;1.50;99.90;;;;;;4802507;29;20046;-83
2022/01/11 00:38:28;;;;;;;1220.22;179.95;;;4.70;99.90;;;;;;4801439;29;20047;-84
2022/01/11 00:40:57;;;;;;;424.80;86.13;;;2.30;99.90;;;;;;4801826;29;20051;-84
2022/01/11 00:43:24;;;;;;;365.93;82.37;;;1.90;99.90;;;;;;4802784;29;20053;-84
2022/01/11 00:45:51;;;;;;;250.65;74.95;;;1.80;99.90;;;;;;4803157;29;20082;-85
2022/01/11 00:48:18;;;;;;;890.88;140.13;;;2.00;99.90;;;;;;4802854;29;20050;-84
2022/01/11 00:50:44;;;;;;;1209.13;176.53;;;1.60;99.90;;;;;;4803935;29;20047;-85
2022/01/11 00:53:10;;;;;;;667.83;110.70;;;2.50;99.90;;;;;;4784500;29;20554;-85
2022/01/11 00:55:38;;;;;;;1035.40;160.47;;;2.30;99.90;;;;;;4802946;29;20039;-85
2022/01/11 00:58:04;;;;;;;1563.82;194.15;;;;;;;;;;4784835;29;20055;-87
2022/01/11 01:00:35;;;;;;;858.63;133.17;;;2.00;99.90;;;;;;4782688;29;20050;-85
2022/01/11 01:03:01;;;;;;;809.97;134.53;;;0.80;99.90;;;;;;4800781;29;20107;-84
2022/01/11 01:05:28;;;;;;;1039.53;163.53;;;5.10;99.90;;;;;;4810215;29;20054;-90
2022/01/11 01:07:54;;;;;;;1494.87;212.33;;;-0.20;99.90;;;;;;4802088;29;20709;-84
2022/01/11 01:10:29;;;;;;;1203.10;176.70;;;1.50;99.90;;;;;;4802279;29;20214;-85
2022/01/11 01:12:56;;;;;;;440.83;91.47;;;2.20;99.90;;;;;;4780117;29;20335;-87
2022/01/11 01:15:22;;;;;;;727.05;120.97;;;0.40;99.90;;;;;;4802456;29;20078;-85
2022/01/11 01:17:48;;;;;;;458.00;93.10;;;4.50;99.90;;;;;;4802987;29;20050;-85
2022/01/11 01:20:15;;;;;;;538.97;98.23;;;;;;;;;;4801346;29;20086;-84
2022/01/11 01:22:40;;;;;;;423.00;83.30;;;1.00;99.90;;;;;;4785954;29;20115;-84
2022/01/11 01:25:07;;;;;;;455.60;98.57;;;1.20;99.90;;;;;;4802716;29;20046;-85
2022/01/11 01:27:36;;;;;;;771.93;119.70;;;1.70;99.90;;;;;;4786821;29;20063;-84
2022/01/11 01:30:05;;;;;;;704.40;119.87;;;1.70;99.90;;;;;;4801372;29;20073;-85
2022/01/11 01:32:31;;;;;;;531.93;101.57;;;0.90;99.90;;;;;;4800067;29;20038;-84
2022/01/11 01:35:02;;;;;;;563.10;102.13;;;5.00;99.90;;;;;;4800356;29;20065;-85
2022/01/11 01:37:28;;;;;;;1002.47;148.70;;;1.50;99.90;;;;;;4787201;29;20051;-85
2022/01/11 01:39:54;;;;;;;899.23;135.07;;;;;;;;;;4784379;29;20061;-85
2022/01/11 01:42:27;;;;;;;587.63;110.30;;;2.40;99.90;;;;;;4802470;29;20577;-85
2022/01/11 01:44:53;;;;;;;1182.73;160.47;;;;;;;;;;4788182;29;20065;-84
2022/01/11 01:47:19;;;;;;;750.47;123.80;;;3.40;99.90;;;;;;4801324;29;20046;-86
2022/01/11 01:49:45;;;;;;;661.97;109.97;;;;;;;;;;4785802;29;20099;-85
2022/01/11 01:52:12;;;;;;;815.10;127.70;;;;;;;;;;4801273;29;20057;-84
2022/01/11 01:54:38;;;;;;;773.13;117.73;;;0.70;99.90;;;;;;4802329;29;20131;-84
2022/01/11 01:57:04;;;;;;;431.43;89.60;;;0.60;99.90;;;;;;4799680;29;20078;-85
2022/01/11 01:59:30;;;;;;;1797.07;228.27;;;;;;;;;;4784220;29;20058;-85
2022/01/11 02:01:57;;;;;;;1876.70;247.43;;;1.20;99.90;;;;;;4797903;29;20046;-84
2022/01/11 02:04:23;;;;;;;1011.37;154.37;;;2.80;99.90;;;;;;4801155;29;20535;-84
2022/01/11 02:06:50;;;;;;;1085.87;162.70;;;2.20;99.90;;;;;;4783361;29;20050;-84
2022/01/11 02:09:16;;;;;;;902.03;140.87;;;;;;;;;;4800778;29;20059;-86
2022/01/11 02:11:42;;;;;;;1999.90;278.90;;;;;;;;;;4784949;29;20226;-93
2022/01/11 02:14:09;;;;;;;1248.70;172.03;;;2.70;99.90;;;;;;4801706;29;20054;-85
2022/01/11 02:16:35;;;;;;;1416.57;198.63;;;;;;;;;;4800203;29;20138;-86
2022/01/11 02:19:01;;;;;;;1668.97;243.70;;;3.50;99.90;;;;;;4777702;29;20360;-84
2022/01/11 02:21:27;;;;;;;1142.67;175.57;;;2.00;99.90;;;;;;4803250;29;20047;-84
2022/01/11 02:23:54;;;;;;;1356.20;216.40;;;1.00;99.90;;;;;;4799366;29;20481;-88
2022/01/11 02:26:20;;;;;;;660.47;126.07;;;2.30;99.90;;;;;;4799944;29;20408;-84
2022/01/11 02:28:46;;;;;;;1117.43;181.17;;;1.60;99.90;;;;;;4798864;29;20134;-84
2022/01/11 02:31:13;;;;;;;1179.00;181.20;;;1.60;99.90;;;;;;4772376;29;20055;-83
2022/01/11 02:33:48;;;;;;;1922.30;258.30;;;3.40;99.90;;;;;;4798031;29;20090;-91
2022/01/11 02:36:20;;;;;;;1726.67;249.80;;;2.40;99.90;;;;;;4798332;29;20049;-84
2022/01/11 02:38:48;;;;;;;1037.90;178.27;;;-0.80;99.90;;;;;;4801767;29;20053;-84
2022/01/11 02:41:14;;;;;;;1044.25;158.43;;;;;;;;;;4805950;29;20531;-85
2022/01/11 02:43:46;;;;;;;950.53;152.87;;;2.30;99.90;;;;;;4812562;29;20061;-87
2022/01/11 02:46:14;;;;;;;1138.63;192.80;;;2.20;99.90;;;;;;4815050;29;20074;-86
2022/01/11 02:48:40;;;;;;;1602.32;210.15;;;;;;;;;;4811558;29;20055;-84
2022/01/11 02:51:07;;;;;;;704.10;125.67;;;1.60;99.90;;;;;;4810807;29;20046;-84
2022/01/11 02:53:39;;;;;;;1879.03;256.83;;;1.70;99.90;;;;;;4812020;29;20127;-85
2022/01/11 02:56:05;;;;;;;1676.63;236.13;;;2.60;99.90;;;;;;4810770;29;20059;-90
2022/01/11 02:58:30;;;;;;;799.70;129.70;;;2.20;99.90;;;;;;4797517;29;20058;-85
2022/01/11 03:00:56;;;;;;;788.33;137.33;;;2.20;99.90;;;;;;4814524;29;20055;-85
2022/01/11 03:03:22;;;;;;;1448.40;190.77;;;1.40;99.90;;;;;;4796321;29;20160;-84
2022/01/11 03:05:54;;;;;;;1166.30;170.33;;;4.30;99.90;;;;;;4804293;29;20069;-87
2022/01/11 03:08:21;;;;;;;1169.27;187.57;;;1.00;99.90;;;;;;4803620;29;20132;-84
2022/01/11 03:10:49;;;;;;;1435.53;204.80;;;1.50;99.90;;;;;;4803768;29;20653;-84
2022/01/11 03:13:16;;;;;;;1051.47;170.52;;;;;;;;;;4803568;29;20054;-84
2022/01/11 03:15:43;;;;;;;735.03;123.85;;;1.80;99.90;;;;;;4805622;29;20397;-86
2022/01/11 03:18:09;;;;;;;1304.82;203.50;;;;;;;;;;4786417;29;20425;-84
2022/01/11 03:20:36;;;;;;;631.37;125.57;;;2.30;99.90;;;;;;4804445;29;20055;-85
2022/01/11 03:23:03;;;;;;;1541.88;235.02;;;1.20;99.90;;;;;;4804488;29;20046;-88
2022/01/11 03:25:29;;;;;;;1119.60;176.50;;;1.60;99.90;;;;;;4804008;29;20042;-84
2022/01/11 03:27:55;;;;;;;1098.00;176.07;;;;;;;;;;4802232;29;20374;-84
2022/01/11 03:30:21;;;;;;;869.47;151.73;;;1.40;99.90;;;;;;4802713;29;20078;-84
2022/01/11 03:32:48;;;;;;;1289.90;189.50;;;2.40;99.90;;;;;;4802070;29;22211;-89
2022/01/11 03:35:14;;;;;;;1380.17;208.17;;;4.00;99.90;;;;;;4803961;29;20485;-84
2022/01/11 03:37:42;;;;;;;866.27;157.73;;;2.00;99.90;;;;;;4795711;29;20420;-85
2022/01/11 03:40:11;;;;;;;1895.32;264.55;;;2.80;99.90;;;;;;4791464;29;20043;-84
2022/01/11 03:42:38;;;;;;;954.60;159.57;;;;;;;;;;4803635;29;20055;-84
2022/01/11 03:45:06;;;;;;;776.50;128.13;;;1.70;99.90;;;;;;4804722;29;20121;-84
2022/01/11 03:47:32;;;;;;;885.23;137.20;;;;;;;;;;4795233;29;20054;-84
2022/01/11 03:49:58;;;;;;;660.23;111.87;;;3.10;99.90;;;;;;4790930;29;20488;-85
2022/01/11 03:52:24;;;;;;;716.43;121.00;;;2.00;99.90;;;;;;4803072;29;20058;-84
2022/01/11 03:55:01;;;;;;;681.80;117.13;;;1.60;99.90;;;;;;4802114;29;20058;-86
2022/01/11 03:57:29;;;;;;;664.53;111.13;;;2.20;99.90;;;;;;4800448;29;20043;-85
2022/01/11 03:59:55;;;;;;;;;;;2.20;99.90;;;;;;4804208;29;20049;-86
2022/01/11 04:02:21;;;;;;;650.27;111.43;;;;;;;;;;4800116;29;19933;-84
2022/01/11 04:04:52;;;;;;;642.27;108.87;;;0.80;99.90;;;;;;4801200;29;20094;-87
2022/01/11 04:07:24;;;;;;;447.23;91.00;;;2.80;99.90;;;;;;4804110;29;20046;-85
2022/01/11 04:09:52;;;;;;;572.47;98.80;;;3.00;99.90;;;;;;4786438;29;20062;-84
2022/01/11 04:12:18;;;;;;;;;;;1.80;99.90;;;;;;4801188;29;20043;-86
2022/01/11 04:14:44;;;;;;;477.40;89.40;;;2.30;99.90;;;;;;4803485;29;19932;-85
2022/01/11 04:17:10;;;;;;;367.67;78.50;;;;;;;;;;4802162;29;20066;-85
2022/01/11 04:19:37;;;;;;;299.97;73.30;;;2.00;99.90;;;;;;4803009;29;20051;-85
2022/01/11 04:22:03;;;;;;;455.83;88.90;;;2.30;99.90;;;;;;4801715;29;20058;-86
2022/01/11 04:24:29;;;;;;;414.73;82.03;;;2.90;99.90;;;;;;4799330;29;20513;-85
2022/01/11 04:26:55;;;;;;;356.47;78.10;;;4.50;99.90;;;;;;4800602;29;20409;-85
2022/01/11 04:29:21;;;;;;;287.47;73.27;;;1.70;99.90;;;;;;4801693;29;20057;-86
2022/01/11 04:31:47;;;;;;;267.93;72.43;;;0.10;99.90;;;;;;4802822;29;20119;-85
2022/01/11 04:34:14;;;;;;;275.40;62.83;;;;;;;;;;4799509;29;20126;-85
2022/01/11 04:36:40;;;;;;;293.67;63.77;;;;;;;;;;4802467;29;20141;-87
2022/01/11 04:39:10;;;;;;;247.23;69.13;;;2.10;99.90;;;;;;4798813;29;20066;-86
2022/01/11 04:41:36;;;;;;;277.70;70.83;;;4.50;99.90;;;;;;4802536;29;20361;-84
2022/01/11 04:44:03;;;;;;;286.23;69.80;;;1.30;99.90;;;;;;4801222;29;20042;-85
2022/01/11 04:46:29;;;;;;;325.17;74.87;;;-0.10;99.90;;;;;;4802401;29;20074;-85
2022/01/11 04:48:55;;;;;;;341.67;74.03;;;2.30;99.90;;;;;;4802287;29;20550;-85
2022/01/11 04:51:24;;;;;;;260.50;73.17;;;2.00;99.90;;;;;;4801066;29;20054;-86
2022/01/11 04:53:50;;;;;;;226.43;69.80;;;2.50;99.90;;;;;;4799489;29;20047;-88
2022/01/11 04:56:16;;;;;;;378.43;77.20;;;-0.50;99.90;;;;;;4799203;29;20390;-85
2022/01/11 04:58:42;;;;;;;270.43;67.97;;;;;;;;;;4786564;29;20063;-86
2022/01/11 05:01:08;;;;;;;211.97;57.03;;;2.60;99.90;;;;;;4786377;29;20148;-85
2022/01/11 05:03:34;;;;;;;229.47;63.40;;;;;;;;;;4804010;29;20192;-85
2022/01/11 05:06:01;;;;;;;218.23;60.67;;;;;;;;;;4785718;29;20066;-84
2022/01/11 05:08:27;;;;;;;227.23;66.97;;;;;;;;;;4801978;29;20054;-84
2022/01/11 05:10:53;;;;;;;243.87;69.07;;;0.40;99.90;;;;;;4801250;29;20086;-84
2022/01/11 05:13:20;;;;;;;208.73;68.10;;;2.90;99.90;;;;;;4809609;29;20135;-85
2022/01/11 05:15:46;;;;;;;221.95;59.60;;;1.50;99.90;;;;;;4806551;29;20142;-84
2022/01/11 05:18:12;;;;;;;219.17;65.37;;;1.30;99.90;;;;;;4802160;29;20389;-84
2022/01/11 05:20:39;;;;;;;172.90;60.77;;;2.20;99.90;;;;;;4786974;29;20039;-85
2022/01/11 05:23:06;;;;;;;226.77;66.00;;;2.30;99.90;;;;;;4785881;29;20122;-89
2022/01/11 05:25:32;;;;;;;199.60;61.77;;;2.90;99.90;;;;;;4800644;29;20055;-84
2022/01/11 05:27:59;;;;;;;192.73;64.00;;;0.30;99.90;;;;;;4798155;29;20047;-86
2022/01/11 05:30:26;;;;;;;215.90;63.97;;;1.20;99.90;;;;;;4784789;29;20051;-83
2022/01/11 05:32:52;;;;;;;170.90;51.10;;;1.50;99.90;;;;;;4805944;29;20137;-83
2022/01/11 05:35:19;;;;;;;193.73;63.83;;;0.70;99.90;;;;;;4799946;29;20046;-86
2022/01/11 05:37:46;;;;;;;138.75;56.17;;;2.30;99.90;;;;;;4807320;29;20068;-81
2022/01/11 05:40:13;;;;;;;162.40;58.00;;;2.10;99.90;;;;;;4805253;29;20047;-82
2022/01/11 05:42:42;;;;;;;180.13;60.63;;;1.70;99.90;;;;;;4802587;29;20059;-82
2022/01/11 05:45:09;;;;;;;179.53;67.40;;;1.40;99.90;;;;;;4801034;29;20051;-87
2022/01/11 05:47:35;;;;;;;189.68;63.13;;;2.60;99.90;;;;;;4787123;29;20061;-86
2022/01/11 05:50:03;;;;;;;188.40;59.87;;;2.10;99.90;;;;;;4803197;29;20055;-81
2022/01/11 05:52:29;;;;;;;179.33;60.23;;;0.20;99.90;;;;;;4801276;29;20054;-83
2022/01/11 05:54:56;;;;;;;154.53;55.83;;;;;;;;;;4807579;29;20050;-86
2022/01/11 05:57:21;;;;;;;199.80;57.67;;;0.00;99.90;;;;;;4798532;29;20074;-81
2022/01/11 05:59:48;;;;;;;196.47;59.07;;;1.80;99.90;;;;;;4800101;29;20197;-84
2022/01/11 06:02:14;;;;;;;162.87;56.13;;;2.00;99.90;;;;;;4801189;29;20057;-85
2022/01/11 06:04:40;;;;;;;185.03;58.57;;;4.30;99.90;;;;;;4802290;29;20075;-82
2022/01/11 06:07:05;;;;;;;164.83;56.27;;;3.50;99.90;;;;;;4801620;29;20559;-82
2022/01/11 06:09:31;;;;;;;169.50;56.13;;;;;;;;;;4800986;29;20051;-84
2022/01/11 06:11:57;;;;;;;168.63;57.60;;;;;;;;;;4800858;29;20545;-90
2022/01/11 06:14:24;;;;;;;194.00;55.30;;;1.30;99.90;;;;;;4797337;29;20505;-82
2022/01/11 06:16:50;;;;;;;170.73;55.87;;;;;;;;;;4809015;29;20058;-84
2022/01/11 06:19:16;;;;;;;162.17;55.27;;;2.10;99.90;;;;;;4803093;29;20111;-83
2022/01/11 06:21:42;;;;;;;180.27;59.77;;;;;;;;;;4806008;29;20107;-83
2022/01/11 06:24:07;;;;;;;152.33;57.83;;;2.00;99.90;;;;;;4804911;29;20059;-82
2022/01/11 06:26:34;;;;;;;146.87;53.80;;;1.70;99.90;;;;;;4805387;29;20505;-83
2022/01/11 06:29:01;;;;;;;150.17;53.30;;;2.70;99.90;;;;;;4807352;29;20055;-81
2022/01/11 06:31:27;;;;;;;170.23;59.72;;;;;;;;;;4790435;29;20524;-83
2022/01/11 06:33:53;;;;;;;162.17;55.23;;;1.40;99.90;;;;;;4799055;29;20880;-81
2022/01/11 06:36:20;;;;;;;164.20;54.47;;;;;;;;;;4789618;29;20047;-81
2022/01/11 06:38:46;;;;;;;171.00;55.90;;;2.80;99.90;;;;;;4806259;29;20082;-81
2022/01/11 06:41:12;;;;;;;152.43;52.77;;;4.40;99.90;;;;;;4791329;29;20147;-83
2022/01/11 06:43:39;;;;;;;163.63;54.90;;;1.20;99.90;;;;;;4806447;29;20401;-87
2022/01/11 06:46:05;;;;;;;162.77;55.67;;;1.60;99.90;;;;;;4808202;29;20518;-81
2022/01/11 06:48:32;;;;;;;135.03;48.97;;;0.80;99.90;;;;;;4806989;29;20126;-82
2022/01/11 06:50:58;;;;;;;156.80;55.40;;;4.70;99.90;;;;;;4806987;29;20050;-81
2022/01/11 06:53:24;;;;;;;168.93;52.80;;;2.10;99.90;;;;;;4807965;29;20038;-82
2022/01/11 06:55:53;;;;;;;154.23;56.03;;;2.10;99.90;;;;;;4811012;29;20062;-82
2022/01/11 06:58:19;;;;;;;148.83;56.90;;;;;;;;;;4806643;29;20130;-88
2022/01/11 07:00:45;;;;;;;157.83;54.17;;;2.00;99.90;;;;;;4806257;29;20063;-82
2022/01/11 07:03:11;;;;;;;146.43;50.67;;;;;;;;;;4806618;29;20137;-82
2022/01/11 07:05:37;;;;;;;164.87;58.43;;;;;;;;;;4805748;29;20101;-82
2022/01/11 07:08:03;;;;;;;204.40;55.03;;;2.70;99.90;;;;;;4806234;29;20487;-82
2022/01/11 07:10:29;;;;;;;135.63;47.13;;;;;;;;;;4805951;29;20055;-83
2022/01/11 07:12:57;;;;;;;140.03;53.17;;;2.30;99.90;;;;;;4806580;29;20051;-83
2022/01/11 07:15:23;;;;;;;141.75;53.78;;;3.40;99.90;;;;;;4806233;29;20097;-83
2022/01/11 07:17:49;;;;;;;151.07;53.80;;;0.10;99.90;;;;;;4806429;29;20043;-83
2022/01/11 07:20:15;;;;;;;142.50;51.30;;;;;;;;;;4775327;29;20058;-83
2022/01/11 07:22:41;;;;;;;148.67;50.20;;;2.50;99.90;;;;;;4805577;29;20062;-83
2022/01/11 07:25:07;;;;;;;141.00;53.70;;;1.40;99.90;;;;;;4805825;29;20051;-83
2022/01/11 07:27:34;;;;;;;153.30;50.10;;;1.60;99.90;;;;;;4782974;29;20374;-82
2022/01/11 07:30:00;;;;;;;182.67;51.37;;;1.60;99.90;;;;;;4802592;29;20191;-81
2022/01/11 07:32:27;;;;;;;147.90;55.63;;;;;;;;;;4807519;29;20089;-83
2022/01/11 07:34:52;;;;;;;156.13;49.63;;;3.00;99.90;;;;;;4805872;29;20169;-83
2022/01/11 07:37:18;;;;;;;121.97;46.57;;;2.30;99.90;;;;;;4789284;29;20188;-82
2022/01/11 07:39:44;;;;;;;145.30;49.90;;;1.90;99.90;;;;;;4801846;29;20310;-82
2022/01/11 07:42:10;;;;;;;145.73;49.40;;;2.30;99.90;;;;;;4804026;29;20064;-82
2022/01/11 07:44:36;;;;;;;138.47;48.23;;;1.90;99.90;;;;;;4797128;29;20118;-82
2022/01/11 07:47:03;;;;;;;133.50;45.40;;;1.60;99.90;;;;;;4804869;29;20055;-81
2022/01/11 07:49:29;;;;;;;133.43;45.38;;;0.60;99.90;;;;;;4808430;29;20058;-82
2022/01/11 07:51:55;;;;;;;144.27;45.07;;;1.80;99.90;;;;;;4804550;29;20499;-82
2022/01/11 07:54:22;;;;;;;115.90;43.83;;;;;;;;;;4804335;29;20515;-82
2022/01/11 07:56:48;;;;;;;141.43;45.90;;;2.40;99.90;;;;;;4805359;29;20110;-81
2022/01/11 07:59:13;;;;;;;125.60;48.97;;;3.20;99.90;;;;;;4806107;29;20492;-82
2022/01/11 08:01:39;;;;;;;124.03;44.23;;;3.50;99.90;;;;;;4797917;29;20062;-82
2022/01/11 08:04:06;;;;;;;117.53;43.10;;;1.60;99.90;;;;;;4789320;29;20086;-82
2022/01/11 08:06:33;;;;;;;99.57;38.43;;;2.00;99.90;;;;;;4804677;29;20098;-82
2022/01/11 08:09:00;;;;;;;116.73;41.77;;;1.20;99.90;;;;;;4804382;29;20062;-82
2022/01/11 08:11:26;;;;;;;122.22;42.88;;;0.40;99.90;;;;;;4808164;29;20053;-84
2022/01/11 08:13:51;;;;;;;98.77;39.73;;;3.80;99.90;;;;;;4805484;29;20513;-82
2022/01/11 08:16:17;;;;;;;119.30;42.77;;;4.70;99.90;;;;;;4792150;29;20054;-82
2022/01/11 08:18:43;;;;;;;119.80;44.17;;;0.60;99.90;;;;;;4804447;29;20133;-82
2022/01/11 08:21:08;;;;;;;103.23;41.03;;;0.60;99.90;;;;;;4804817;29;20055;-82
2022/01/11 08:23:34;;;;;;;100.63;37.97;;;2.20;99.90;;;;;;4804659;29;20381;-82
2022/01/11 08:26:00;;;;;;;99.87;39.70;;;;;;;;;;4805029;29;20499;-82
2022/01/11 08:28:26;;;;;;;90.13;35.87;;;;;;;;;;4804930;29;20051;-87
2022/01/11 08:30:52;;;;;;;97.20;37.97;;;;;;;;;;4805398;29;20059;-83
2022/01/11 08:33:18;;;;;;;82.47;34.60;;;1.50;99.90;;;;;;4805188;29;20082;-83
2022/01/11 08:35:44;;;;;;;103.93;37.53;;;2.00;99.90;;;;;;4804149;29;20396;-84
2022/01/11 08:38:11;;;;;;;86.17;34.57;;;1.80;99.90;;;;;;4805502;29;20471;-82
2022/01/11 08:40:37;;;;;;;95.27;37.77;;;;;;;;;;4787795;29;20097;-82
2022/01/11 08:43:04;;;;;;;92.17;35.67;;;0.40;99.90;;;;;;4804021;29;20055;-81
2022/01/11 08:45:32;;;;;;;82.03;35.55;;;1.80;99.90;;;;;;4804284;29;20504;-87
2022/01/11 08:47:58;;;;;;;64.93;28.20;;;2.50;99.90;;;;;;4808389;29;20404;-82
2022/01/11 08:50:25;;;;;;;84.20;35.90;;;;;;;;;;4806282;29;20062;-83
2022/01/11 08:52:51;;;;;;;75.73;32.83;;;1.70;99.90;;;;;;4787734;29;20062;-82
2022/01/11 08:55:17;;;;;;;86.13;35.77;;;1.50;99.90;;;;;;4803876;29;20051;-82
2022/01/11 08:57:44;;;;;;;78.00;33.33;;;3.70;99.90;;;;;;4815909;29;20073;-85
2022/01/11 09:00:21;;;;;;;81.50;35.93;;;2.50;99.90;;;;;;4805589;29;20046;-84
2022/01/11 09:02:51;;;;;;;79.83;32.50;;;2.60;99.90;;;;;;4806808;29;20051;-82
2022/01/11 09:05:17;;;;;;;89.93;36.93;;;1.30;99.90;;;;;;4800666;29;20058;-82
2022/01/11 09:07:43;;;;;;;68.67;32.93;;;2.50;99.90;;;;;;4809366;29;20063;-82
2022/01/11 09:10:10;;;;;;;70.27;33.00;;;2.20;99.90;;;;;;4791042;29;20111;-83
2022/01/11 09:12:36;;;;;;;70.77;33.33;;;2.50;99.90;;;;;;4808353;29;20382;-82
2022/01/11 09:15:05;;;;;;;64.37;29.90;;;3.00;99.90;;;;;;4805879;29;20137;-82
2022/01/11 09:17:31;;;;;;;65.17;31.10;;;;;;;;;;4805431;29;20062;-88
2022/01/11 09:19:57;;;;;;;69.87;33.33;;;;;;;;;;4804397;29;20051;-83
2022/01/11 09:22:23;;;;;;;59.60;31.30;;;1.40;99.90;;;;;;4803622;29;20461;-83
2022/01/11 09:24:49;;;;;;;64.47;29.63;;;1.00;99.90;;;;;;4806642;29;20046;-83
2022/01/11 09:27:15;;;;;;;73.43;30.83;;;1.60;99.90;;;;;;4790359;29;20047;-82
2022/01/11 09:29:43;;;;;;;59.47;29.03;;;3.20;99.90;;;;;;4810198;29;20112;-85
2022/01/11 09:32:10;;;;;;;68.88;30.88;;;1.80;99.90;;;;;;4803634;29;20400;-83
2022/01/11 09:34:39;;;;;;;72.55;31.23;;;1.90;99.90;;;;;;4810738;29;20433;-82
2022/01/11 09:37:06;;;;;;;76.33;31.37;;;3.30;99.90;;;;;;4803743;29;20065;-82
2022/01/11 09:39:31;;;;;;;71.23;33.07;;;2.00;99.90;;;;;;4816508;29;20126;-83
2022/01/11 09:41:59;;;;;;;61.43;26.57;;;1.40;99.90;;;;;;4803438;29;20419;-82
2022/01/11 09:44:26;;;;;;;74.65;30.45;;;1.20;99.90;;;;;;4804009;29;20058;-83
2022/01/11 09:46:52;;;;;;;72.00;32.20;;;1.40;99.90;;;;;;4803307;29;20050;-83
2022/01/11 09:49:18;;;;;;;65.33;30.50;;;4.00;99.90;;;;;;4773855;29;20131;-82
2022/01/11 09:51:44;;;;;;;74.37;30.33;;;-0.20;99.90;;;;;;4802626;29;20125;-84
2022/01/11 09:54:12;;;;;;;67.50;30.50;;;3.50;99.90;;;;;;4786482;29;20058;-83
2022/01/11 09:56:39;;;;;;;68.97;31.77;;;2.10;99.90;;;;;;4803177;29;20103;-89
2022/01/11 09:59:06;;;;;;;69.60;30.73;;;2.10;99.90;;;;;;4803048;29;20100;-83
2022/01/11 10:01:32;;;;;;;79.53;29.88;;;1.40;99.90;;;;;;4786743;29;20389;-83
2022/01/11 10:04:13;;;;;;;73.80;32.13;;;1.20;99.90;;;;;;4803475;29;20090;-83
2022/01/11 10:06:42;;;;;;;74.50;35.03;;;3.00;99.90;;;;;;4802799;29;20478;-88
2022/01/11 10:09:18;;;;;;;68.47;33.63;;;0.80;99.90;;;;;;4817279;29;20445;-83
2022/01/11 10:11:47;;;;;;;73.37;34.33;;;1.50;99.90;;;;;;4786436;29;20054;-82
2022/01/11 10:14:23;;;;;;;80.33;35.03;;;0.60;99.90;;;;;;4804297;29;20552;-83
2022/01/11 10:17:02;;;;;;;82.80;34.87;;;1.40;99.90;;;;;;4815841;29;20050;-83
2022/01/11 10:19:28;;;;;;;86.73;35.67;;;;;;;;;;4808752;29;20108;-85
2022/01/11 10:21:57;;;;;;;74.40;34.13;;;5.00;99.90;;;;;;4802500;29;20057;-83
2022/01/11 10:24:42;;;;;;;67.87;34.67;;;3.40;99.90;;;;;;4803068;29;20461;-83
2022/01/11 10:27:19;;;;;;;82.87;36.33;;;2.10;99.90;;;;;;4805371;29;20055;-83
2022/01/11 10:29:50;;;;;;;74.87;33.93;;;2.30;99.90;;;;;;4786093;29;20062;-83
2022/01/11 10:32:28;;;;;;;84.70;36.57;;;1.60;99.90;;;;;;4787110;29;20085;-83
2022/01/11 10:34:56;;;;;;;82.43;37.00;;;1.50;99.90;;;;;;4802652;29;20423;-83
2022/01/11 10:37:38;;;;;;;78.07;36.07;;;2.50;99.90;;;;;;4803704;29;20069;-82
2022/01/11 10:40:24;;;;;;;70.87;35.70;;;1.90;99.90;;;;;;4788150;29;20411;-82
2022/01/11 10:42:53;;;;;;;79.80;35.77;;;2.60;99.90;;;;;;4802878;29;20111;-84
2022/01/11 10:45:22;;;;;;;65.47;32.73;;;2.60;99.90;;;;;;4803308;29;20125;-83
2022/01/11 10:47:54;;;;;;;66.00;34.23;;;2.90;99.90;;;;;;4813952;29;20054;-83
2022/01/11 10:50:28;;;;;;;71.47;34.10;;;2.90;99.90;;;;;;4803334;29;20088;-83
2022/01/11 10:52:56;;;;;;;76.47;35.03;;;1.90;99.90;;;;;;4786674;29;20497;-83
2022/01/11 10:55:31;;;;;;;65.82;33.15;;;2.30;99.90;;;;;;4806232;29;20477;-83
2022/01/11 10:58:00;;;;;;;70.57;33.53;;;2.50;99.90;;;;;;4781884;30;20047;-83
2022/01/11 11:00:53;;;;;;;74.57;31.57;;;2.10;99.90;;;;;;4803041;29;20051;-83
2022/01/11 11:03:21;;;;;;;65.93;34.23;;;2.70;99.90;;;;;;4800191;29;20165;-83
2022/01/11 11:05:55;;;;;;;62.23;29.40;;;2.00;99.90;;;;;;4805062;29;20069;-83
2022/01/11 11:08:23;;;;;;;64.83;32.33;;;3.00;99.90;;;;;;4800456;29;20066;-83
2022/01/11 11:10:55;;;;;;;64.07;30.87;;;3.10;99.90;;;;;;4805185;29;20058;-83
2022/01/11 11:13:35;;;;;;;68.17;32.67;;;2.40;99.90;;;;;;4806600;29;20051;-83
2022/01/11 11:16:09;;;;;;;73.73;36.07;;;2.30;99.90;;;;;;4805934;29;20047;-84
2022/01/11 11:18:44;;;;;;;64.30;30.70;;;1.60;99.90;;;;;;4805577;29;20137;-85
2022/01/11 11:21:18;;;;;;;63.00;31.53;;;2.50;99.90;;;;;;4806300;29;20195;-84
2022/01/11 11:23:44;;;;;;;72.37;31.43;;;3.10;99.90;;;;;;4805763;29;20526;-88
2022/01/11 11:26:11;;;;;;;70.77;33.50;;;1.10;99.90;;;;;;4799299;29;20126;-84
2022/01/11 11:28:38;;;;;;;66.50;32.63;;;2.70;99.90;;;;;;4797724;29;20085;-83
2022/01/11 11:31:04;;;;;;;68.97;30.20;;;;;;;;;;4802250;29;20054;-83
2022/01/11 11:33:30;;;;;;;62.97;31.33;;;;;;;;;;4821848;29;20054;-84
2022/01/11 11:35:57;;;;;;;56.47;31.30;;;2.90;99.90;;;;;;4813557;29;20051;-84
2022/01/11 11:38:31;;;;;;;63.90;32.07;;;4.40;99.90;;;;;;4792013;29;20111;-83
2022/01/11 11:40:57;;;;;;;60.70;32.23;;;;;;;;;;4805302;29;20055;-83
2022/01/11 11:43:23;;;;;;;55.53;30.10;;;4.00;99.90;;;;;;4805691;29;20130;-84
2022/01/11 11:45:49;;;;;;;55.55;30.02;;;3.30;99.90;;;;;;4806396;29;20129;-83
2022/01/11 11:48:17;;;;;;;55.03;28.93;;;3.50;99.90;;;;;;4806202;29;20199;-83
2022/01/11 11:51:02;;;;;;;52.37;29.50;;;3.70;99.90;;;;;;4806066;29;20065;-83
2022/01/11 11:53:40;;;;;;;55.27;27.37;;;4.40;99.90;;;;;;4789782;29;20066;-82
2022/01/11 11:56:26;;;;;;;49.17;26.40;;;4.20;99.90;;;;;;4812742;29;20502;-83
2022/01/11 11:58:58;;;;;;;50.23;27.10;;;3.80;99.90;;;;;;4819159;29;20129;-82
2022/01/11 12:01:42;;;;;;;55.43;28.77;;;1.90;99.90;;;;;;4806083;29;20055;-82
2022/01/11 12:04:37;;;;;;;44.97;26.40;;;3.80;99.90;;;;;;4789610;29;20055;-83
2022/01/11 12:07:40;;;;;;;51.23;26.63;;;3.40;99.90;;;;;;4817507;29;20054;-83
2022/01/11 12:10:14;;;;;;;51.28;29.90;;;5.50;99.90;;;;;;4822545;29;20056;-83
2022/01/11 12:12:51;;;;;;;51.90;26.73;;;3.60;99.90;;;;;;4805291;29;20051;-83
2022/01/11 12:15:32;;;;;;;53.60;26.87;;;5.90;99.90;;;;;;4808911;29;20057;-83
2022/01/11 12:17:57;;;;;;;49.97;27.30;;;3.70;99.90;;;;;;4804052;29;20481;-82
2022/01/11 12:20:46;;;;;;;50.37;27.60;;;6.80;99.90;;;;;;4804593;29;20076;-84
2022/01/11 12:23:21;;;;;;;44.53;25.77;;;4.20;99.90;;;;;;4803127;29;20043;-84
2022/01/11 12:25:51;;;;;;;43.77;24.80;;;4.40;99.90;;;;;;4805048;29;20055;-85
2022/01/11 12:28:20;;;;;;;47.90;24.63;;;3.60;99.90;;;;;;4806793;29;20489;-83
2022/01/11 12:30:46;;;;;;;49.67;24.23;;;4.40;99.90;;;;;;4822964;29;20054;-83
2022/01/11 12:33:17;;;;;;;44.25;25.15;;;5.30;99.90;;;;;;4806077;29;20300;-83
2022/01/11 12:36:04;;;;;;;44.53;25.25;;;4.00;99.90;;;;;;4812063;29;20102;-83
2022/01/11 12:38:37;;;;;;;48.97;25.50;;;4.70;99.90;;;;;;4810038;29;20142;-83
2022/01/11 12:41:31;;;;;;;41.47;24.48;;;5.20;99.90;;;;;;4805829;29;20047;-83
2022/01/11 12:44:33;;;;;;;45.28;24.60;;;4.80;99.90;;;;;;4811391;29;20062;-84
2022/01/11 12:47:01;;;;;;;42.67;22.92;;;5.40;99.90;;;;;;4822376;29;20067;-83
2022/01/11 12:49:28;;;;;;;39.75;22.95;;;4.30;99.90;;;;;;4817555;29;20046;-84
2022/01/11 12:52:09;;;;;;;43.28;23.23;;;4.20;99.90;;;;;;4805128;29;20054;-89